Time;durP1;ratioP1;P1;durP2;ratioP2;P2;SDS_P1;SDS_P2;PMS_P1;PMS_P2;Temp;Humidity;BMP_temperature;BMP_pressure;BME280_temperature;BME280_humidity;BME280_pressure;Samples;Min_cycle;Max_cycle;Signal;HPM_P1;HPM_P2
2021/09/28 00:02:04;;;;;;;8.85;7.97;;;;;;;;;;4986259;28;20015;-37
2021/09/28 00:04:30;;;;;;;10.27;7.80;;;;;;;;;;4993041;28;20498;-39
2021/09/28 00:06:55;;;;;;;8.90;7.65;;;;;;;;;;4996053;28;20082;-39
2021/09/28 00:09:20;;;;;;;7.88;7.00;;;;;;;;;;4999740;28;20027;-43
2021/09/28 00:11:50;;;;;;;7.43;6.72;;;;;;;;;;4992719;28;20022;-39
2021/09/28 00:14:15;;;;;;;8.60;6.65;;;;;;;;;;4995717;28;20237;-39
2021/09/28 00:16:41;;;;;;;7.45;6.63;;;;;;;;;;4997189;28;20532;-38
2021/09/28 00:19:06;;;;;;;6.53;5.63;;;;;;;;;;4991146;28;20508;-39
2021/09/28 00:21:31;;;;;;;7.10;6.38;;;;;;;;;;4992511;28;20459;-36
2021/09/28 00:23:56;;;;;;;9.32;6.20;;;;;;;;;;4993588;28;20033;-37
2021/09/28 00:26:22;;;;;;;5.68;4.57;;;;;;;;;;4990696;28;20034;-40
2021/09/28 00:28:47;;;;;;;11.85;6.80;;;;;;;;;;4988905;28;20398;-36
2021/09/28 00:31:12;;;;;;;12.18;7.75;;;;;;;;;;4993305;28;20386;-36
2021/09/28 00:33:38;;;;;;;10.18;6.70;;;;;;;;;;4993307;28;20479;-36
2021/09/28 00:36:03;;;;;;;10.02;6.72;;;;;;;;;;4994216;28;20727;-37
2021/09/28 00:38:28;;;;;;;12.07;6.40;;;;;;;;;;4990228;28;20483;-37
2021/09/28 00:40:54;;;;;;;9.57;6.18;;;;;;;;;;4991384;28;20038;-36
2021/09/28 00:43:19;;;;;;;6.32;5.72;;;;;;;;;;4994037;28;20510;-37
2021/09/28 00:45:44;;;;;;;9.82;7.18;;;;;;;;;;4996101;28;20520;-38
2021/09/28 00:48:10;;;;;;;7.38;6.40;;;;;;;;;;4994991;28;20018;-39
2021/09/28 00:50:35;;;;;;;6.95;5.95;;;;;;;;;;4991016;28;20402;-36
2021/09/28 00:53:03;;;;;;;7.22;5.88;;;;;;;;;;4994518;28;20048;-36
2021/09/28 00:55:29;;;;;;;8.35;6.65;;;;;;;;;;4990831;28;20019;-36
2021/09/28 00:57:56;;;;;;;7.82;7.00;;;;;;;;;;4991945;28;20037;-36
2021/09/28 01:00:21;;;;;;;13.32;8.50;;;;;;;;;;4985559;28;20445;-37
2021/09/28 01:02:46;;;;;;;8.45;6.35;;;;;;;;;;4989869;28;20540;-36
2021/09/28 01:05:11;;;;;;;10.75;6.80;;;;;;;;;;4991306;28;20026;-37
2021/09/28 01:07:37;;;;;;;7.43;6.35;;;;;;;;;;4993058;28;20119;-36
2021/09/28 01:10:02;;;;;;;15.55;7.55;;;;;;;;;;4989606;28;20495;-36
2021/09/28 01:12:27;;;;;;;7.40;5.57;;;;;;;;;;4989131;28;20502;-40
2021/09/28 01:14:53;;;;;;;7.18;6.47;;;;;;;;;;4992458;28;20019;-42
2021/09/28 01:17:19;;;;;;;7.20;6.22;;;;;;;;;;4994902;28;20023;-36
2021/09/28 01:19:45;;;;;;;13.88;6.55;;;;;;;;;;4992924;28;20146;-37
2021/09/28 01:22:11;;;;;;;12.00;6.10;;;;;;;;;;4987227;28;20011;-37
2021/09/28 01:24:37;;;;;;;14.07;6.75;;;;;;;;;;4986215;28;20019;-38
2021/09/28 01:27:02;;;;;;;6.07;5.28;;;;;;;;;;4999420;28;20546;-36
2021/09/28 01:29:27;;;;;;;9.50;7.60;;;;;;;;;;4993107;28;20030;-38
2021/09/28 01:31:53;;;;;;;7.97;7.18;;;;;;;;;;4990426;28;20037;-37
2021/09/28 01:34:19;;;;;;;7.72;6.57;;;;;;;;;;4993612;28;20026;-38
2021/09/28 01:36:46;;;;;;;7.50;6.75;;;;;;;;;;4993637;28;20077;-37
2021/09/28 01:39:11;;;;;;;7.45;6.75;;;;;;;;;;4990506;28;20105;-38
2021/09/28 01:41:37;;;;;;;8.07;6.53;;;;;;;;;;4988878;28;20113;-36
2021/09/28 01:44:03;;;;;;;7.80;5.95;;;;;;;;;;4989421;28;20046;-38
2021/09/28 01:46:29;;;;;;;7.95;7.15;;;;;;;;;;4989358;28;20014;-36
2021/09/28 01:48:54;;;;;;;11.15;6.93;;;;;;;;;;4991901;28;20041;-37
2021/09/28 01:51:22;;;;;;;11.10;5.95;;;;;;;;;;4988206;28;20030;-38
2021/09/28 01:53:50;;;;;;;9.52;5.90;;;;;;;;;;4990703;28;20018;-37
2021/09/28 01:56:19;;;;;;;6.68;6.00;;;;;;;;;;4989402;28;20026;-36
2021/09/28 01:58:49;;;;;;;8.40;7.35;;;;;;;;;;4986079;28;20026;-36
2021/09/28 02:01:15;;;;;;;8.60;7.75;;;;;;;;;;4989307;28;20033;-38
2021/09/28 02:03:43;;;;;;;6.97;6.28;;;;;;;;;;4990330;28;20101;-37
2021/09/28 02:06:10;;;;;;;7.47;6.78;;;;;;;;;;4990367;28;20126;-38
2021/09/28 02:08:35;;;;;;;9.95;6.72;;;;;;;;;;4993100;28;20395;-37
2021/09/28 02:11:01;;;;;;;7.72;6.95;;;;;;;;;;4990399;28;20107;-36
2021/09/28 02:13:26;;;;;;;8.50;7.07;;;;;;;;;;4989065;28;20018;-37
2021/09/28 02:15:51;;;;;;;6.88;5.90;;;;;;;;;;4991391;28;20031;-39
2021/09/28 02:18:17;;;;;;;9.18;6.35;;;;;;;;;;4994048;28;20558;-38
2021/09/28 02:20:45;;;;;;;8.90;7.35;;;;;;;;;;4987927;28;20113;-43
2021/09/28 02:23:10;;;;;;;5.13;4.65;;;;;;;;;;4989574;28;20022;-36
2021/09/28 02:25:35;;;;;;;7.00;5.93;;;;;;;;;;4990304;28;20014;-37
2021/09/28 02:28:01;;;;;;;7.50;6.00;;;;;;;;;;4987993;28;20074;-37
2021/09/28 02:30:26;;;;;;;6.05;5.18;;;;;;;;;;5000812;28;20010;-39
2021/09/28 02:32:51;;;;;;;5.35;4.85;;;;;;;;;;4989791;28;20693;-37
2021/09/28 02:35:17;;;;;;;11.55;7.03;;;;;;;;;;4993011;28;20028;-36
2021/09/28 02:37:42;;;;;;;6.68;5.90;;;;;;;;;;4991054;28;20037;-36
2021/09/28 02:40:08;;;;;;;6.03;5.45;;;;;;;;;;4986213;28;20113;-38
2021/09/28 02:42:34;;;;;;;12.57;6.68;;;;;;;;;;4988997;28;20100;-36
2021/09/28 02:44:59;;;;;;;9.10;5.35;;;;;;;;;;4991256;28;20579;-37
2021/09/28 02:47:25;;;;;;;10.18;4.25;;;;;;;;;;4991754;28;20475;-38
2021/09/28 02:49:50;;;;;;;5.63;4.30;;;;;;;;;;4991785;28;20067;-38
2021/09/28 02:52:16;;;;;;;6.88;4.32;;;;;;;;;;4986909;28;20383;-37
2021/09/28 02:54:41;;;;;;;10.75;7.22;;;;;;;;;;4989240;28;20032;-38
2021/09/28 02:57:06;;;;;;;5.05;4.25;;;;;;;;;;4987265;28;20110;-38
2021/09/28 02:59:32;;;;;;;5.22;3.63;;;;;;;;;;4989439;28;20105;-38
2021/09/28 03:01:57;;;;;;;7.60;4.63;;;;;;;;;;4987221;28;20026;-38
2021/09/28 03:04:23;;;;;;;5.30;4.18;;;;;;;;;;4991846;28;20038;-38
2021/09/28 03:06:48;;;;;;;5.07;4.57;;;;;;;;;;4991784;28;20029;-39
2021/09/28 03:09:13;;;;;;;4.20;3.80;;;;;;;;;;4989928;28;20523;-39
2021/09/28 03:11:39;;;;;;;5.70;4.43;;;;;;;;;;4989496;28;20025;-39
2021/09/28 03:14:04;;;;;;;5.05;4.50;;;;;;;;;;4987664;28;20172;-40
2021/09/28 03:16:29;;;;;;;8.60;5.68;;;;;;;;;;4991869;28;20213;-38
2021/09/28 03:18:54;;;;;;;5.18;4.68;;;;;;;;;;4988782;28;20615;-39
2021/09/28 03:21:20;;;;;;;8.35;4.93;;;;;;;;;;4988095;28;20641;-37
2021/09/28 03:23:45;;;;;;;5.13;3.80;;;;;;;;;;4992616;28;20018;-37
2021/09/28 03:26:11;;;;;;;5.13;4.63;;;;;;;;;;4988985;28;20111;-38
2021/09/28 03:28:36;;;;;;;4.78;3.83;;;;;;;;;;4986874;28;20022;-39
2021/09/28 03:31:02;;;;;;;6.32;4.35;;;;;;;;;;4991187;28;20019;-37
2021/09/28 03:33:27;;;;;;;5.13;4.35;;;;;;;;;;4992008;28;20348;-37
2021/09/28 03:35:53;;;;;;;4.85;4.35;;;;;;;;;;4993784;28;20040;-36
2021/09/28 03:38:18;;;;;;;4.00;3.45;;;;;;;;;;4995064;28;20518;-37
2021/09/28 03:40:43;;;;;;;5.78;3.60;;;;;;;;;;4989594;28;20444;-38
2021/09/28 03:43:09;;;;;;;5.07;3.42;;;;;;;;;;4989063;28;20141;-38
2021/09/28 03:45:35;;;;;;;4.22;3.20;;;;;;;;;;4996637;28;20030;-38
2021/09/28 03:48:05;;;;;;;3.38;2.47;;;;;;;;;;4990417;28;20471;-37
2021/09/28 03:50:44;;;;;;;;;;;;;;;;;;;;;
2021/09/28 03:53:30;;;;;;;3.35;2.75;;;;;;;;;;4985010;28;20033;-37
2021/09/28 03:55:55;;;;;;;3.80;3.03;;;;;;;;;;4986346;28;20084;-37
2021/09/28 03:58:20;;;;;;;4.90;3.25;;;;;;;;;;4989456;28;20121;-34
2021/09/28 04:00:46;;;;;;;6.68;2.83;;;;;;;;;;4999493;28;20075;-35
2021/09/28 04:03:11;;;;;;;6.22;4.07;;;;;;;;;;4989382;28;20047;-34
2021/09/28 04:05:37;;;;;;;4.97;2.58;;;;;;;;;;4990767;28;20056;-34
2021/09/28 04:08:06;;;;;;;6.30;3.67;;;;;;;;;;4989823;28;20022;-36
2021/09/28 04:10:35;;;;;;;4.22;3.72;;;;;;;;;;4986451;28;20026;-37
2021/09/28 04:13:12;;;;;;;;;;;;;;;;;;;;;
2021/09/28 04:15:41;;;;;;;3.58;2.67;;;;;;;;;;4992072;28;20038;-36
2021/09/28 04:18:18;;;;;;;3.53;2.78;;;;;;;;;;4987739;28;20496;-36
2021/09/28 04:20:44;;;;;;;6.97;3.22;;;;;;;;;;4987745;28;20395;-36
2021/09/28 04:23:11;;;;;;;3.53;2.78;;;;;;;;;;4983404;28;20047;-36
2021/09/28 04:25:36;;;;;;;4.32;3.13;;;;;;;;;;4992037;28;20048;-36
2021/09/28 04:28:02;;;;;;;3.05;2.58;;;;;;;;;;4990691;28;20052;-36
2021/09/28 04:30:27;;;;;;;3.92;2.80;;;;;;;;;;4989216;28;20079;-36
2021/09/28 04:32:52;;;;;;;3.55;2.58;;;;;;;;;;4992699;28;20028;-37
2021/09/28 04:35:18;;;;;;;4.53;2.90;;;;;;;;;;4992329;28;20639;-36
2021/09/28 04:37:43;;;;;;;3.85;3.22;;;;;;;;;;4994576;28;20030;-36
2021/09/28 04:40:09;;;;;;;3.58;2.83;;;;;;;;;;4993418;28;20034;-37
2021/09/28 04:42:34;;;;;;;7.38;4.40;;;;;;;;;;4990022;28;20149;-37
2021/09/28 04:44:59;;;;;;;17.60;4.40;;;;;;;;;;4996688;28;20056;-37
2021/09/28 04:47:25;;;;;;;4.35;3.17;;;;;;;;;;4990784;28;20062;-36
2021/09/28 04:49:50;;;;;;;4.72;3.78;;;;;;;;;;4995356;28;20022;-36
2021/09/28 04:52:16;;;;;;;6.32;3.50;;;;;;;;;;4990606;28;20026;-36
2021/09/28 04:54:41;;;;;;;4.32;3.08;;;;;;;;;;4993051;28;20047;-36
2021/09/28 04:57:07;;;;;;;4.75;3.00;;;;;;;;;;4991107;28;20030;-36
2021/09/28 04:59:32;;;;;;;3.88;2.60;;;;;;;;;;4989766;28;20475;-36
2021/09/28 05:01:58;;;;;;;3.58;2.55;;;;;;;;;;4988237;28;20122;-36
2021/09/28 05:04:23;;;;;;;3.80;3.15;;;;;;;;;;4993974;28;20030;-36
2021/09/28 05:06:49;;;;;;;4.72;3.90;;;;;;;;;;4994150;28;20542;-36
2021/09/28 05:09:14;;;;;;;3.05;2.63;;;;;;;;;;4984006;28;20576;-36
2021/09/28 05:11:39;;;;;;;12.45;2.92;;;;;;;;;;4991105;28;20026;-37
2021/09/28 05:14:05;;;;;;;2.20;1.67;;;;;;;;;;4992245;28;20030;-38
2021/09/28 05:16:31;;;;;;;7.97;3.22;;;;;;;;;;4988694;28;20036;-36
2021/09/28 05:18:56;;;;;;;2.88;2.55;;;;;;;;;;4993917;28;20022;-36
2021/09/28 05:21:21;;;;;;;3.67;3.25;;;;;;;;;;4989867;28;20030;-36
2021/09/28 05:23:47;;;;;;;2.45;1.88;;;;;;;;;;4991294;28;20098;-36
2021/09/28 05:26:13;;;;;;;10.63;2.70;;;;;;;;;;4988600;28;20030;-36
2021/09/28 05:28:38;;;;;;;2.83;2.20;;;;;;;;;;4985380;28;20052;-36
2021/09/28 05:31:03;;;;;;;2.85;1.55;;;;;;;;;;4981490;28;20062;-36
2021/09/28 05:33:29;;;;;;;7.10;1.85;;;;;;;;;;4986413;28;20045;-36
2021/09/28 05:35:55;;;;;;;5.45;3.40;;;;;;;;;;4989070;28;20026;-36
2021/09/28 05:38:21;;;;;;;2.47;2.28;;;;;;;;;;4989131;28;20027;-36
2021/09/28 05:40:46;;;;;;;5.13;3.15;;;;;;;;;;4989919;28;20022;-37
2021/09/28 05:43:11;;;;;;;3.60;3.20;;;;;;;;;;4987640;28;20042;-36
2021/09/28 05:45:36;;;;;;;3.33;2.47;;;;;;;;;;4987652;28;20018;-36
2021/09/28 05:48:02;;;;;;;3.08;2.03;;;;;;;;;;4990338;28;20526;-36
2021/09/28 05:50:27;;;;;;;18.80;1.65;;;;;;;;;;4991028;28;20022;-36
2021/09/28 05:52:53;;;;;;;5.78;2.08;;;;;;;;;;4990646;28;20023;-36
2021/09/28 05:55:18;;;;;;;7.63;2.75;;;;;;;;;;4983903;28;20029;-37
2021/09/28 05:57:44;;;;;;;3.30;1.38;;;;;;;;;;4989196;28;20022;-35
2021/09/28 06:00:15;;;;;;;0.73;0.63;;;;;;;;;;4991205;28;20486;-35
2021/09/28 06:02:40;;;;;;;;;;;;;;;;;;4989595;28;20037;-36
2021/09/28 06:05:06;;;;;;;3.17;0.88;;;;;;;;;;4987428;28;20125;-36
2021/09/28 06:07:31;;;;;;;2.28;1.40;;;;;;;;;;4990726;28;20027;-35
2021/09/28 06:09:56;;;;;;;9.38;1.55;;;;;;;;;;4988655;28;20037;-36
2021/09/28 06:12:22;;;;;;;9.55;2.15;;;;;;;;;;4988524;28;20078;-35
2021/09/28 06:14:47;;;;;;;4.10;2.25;;;;;;;;;;4986759;28;20053;-36
2021/09/28 06:17:12;;;;;;;22.77;6.30;;;;;;;;;;4991574;28;20030;-35
2021/09/28 06:19:38;;;;;;;4.13;2.17;;;;;;;;;;4990642;28;20017;-36
2021/09/28 06:22:04;;;;;;;5.82;2.17;;;;;;;;;;4995325;28;20246;-35
2021/09/28 06:24:32;;;;;;;2.88;1.80;;;;;;;;;;4994917;28;20027;-35
2021/09/28 06:26:58;;;;;;;13.20;9.15;;;;;;;;;;4992983;28;20034;-37
2021/09/28 06:29:24;;;;;;;5.22;1.60;;;;;;;;;;4991846;28;20027;-36
2021/09/28 06:31:49;;;;;;;6.10;2.72;;;;;;;;;;4991788;28;20022;-35
2021/09/28 06:34:14;;;;;;;2.65;1.55;;;;;;;;;;4989028;28;20724;-36
2021/09/28 06:36:40;;;;;;;2.67;1.75;;;;;;;;;;4991759;28;20032;-35
2021/09/28 06:39:05;;;;;;;1.70;0.95;;;;;;;;;;4991213;28;20031;-35
2021/09/28 06:41:30;;;;;;;0.93;0.68;;;;;;;;;;4987506;28;20074;-36
2021/09/28 06:43:56;;;;;;;6.65;2.38;;;;;;;;;;4988343;28;20100;-37
2021/09/28 06:46:22;;;;;;;2.10;1.02;;;;;;;;;;4991679;28;20530;-36
2021/09/28 06:48:47;;;;;;;10.15;7.20;;;;;;;;;;4989301;28;20033;-36
2021/09/28 06:51:13;;;;;;;9.13;2.10;;;;;;;;;;4989583;28;20035;-37
2021/09/28 06:53:38;;;;;;;3.22;1.33;;;;;;;;;;4992101;28;20870;-37
2021/09/28 06:56:04;;;;;;;0.70;0.40;;;;;;;;;;4990731;28;20672;-36
2021/09/28 06:58:29;;;;;;;0.88;0.50;;;;;;;;;;4994654;28;20506;-36
2021/09/28 07:00:54;;;;;;;2.33;0.73;;;;;;;;;;4987507;28;20174;-36
2021/09/28 07:03:20;;;;;;;4.40;2.65;;;;;;;;;;4989519;28;20471;-35
2021/09/28 07:05:45;;;;;;;9.82;6.47;;;;;;;;;;4987666;28;20108;-35
2021/09/28 07:08:11;;;;;;;14.32;8.77;;;;;;;;;;4988987;28;20518;-46
2021/09/28 07:10:36;;;;;;;13.05;3.30;;;;;;;;;;4993037;28;20076;-44
2021/09/28 07:13:01;;;;;;;11.73;2.20;;;;;;;;;;4985227;28;20075;-46
2021/09/28 07:15:27;;;;;;;4.00;2.72;;;;;;;;;;4990494;28;20018;-44
2021/09/28 07:17:54;;;;;;;6.85;5.28;;;;;;;;;;4991285;28;20062;-44
2021/09/28 07:20:19;;;;;;;6.82;4.53;;;;;;;;;;4989043;28;20018;-45
2021/09/28 07:22:45;;;;;;;10.93;3.65;;;;;;;;;;4988875;28;20015;-43
2021/09/28 07:25:10;;;;;;;16.55;3.83;;;;;;;;;;4988370;28;20026;-43
2021/09/28 07:27:35;;;;;;;22.55;2.65;;;;;;;;;;4981630;28;20063;-45
2021/09/28 07:30:01;;;;;;;21.38;11.65;;;;;;;;;;4983580;28;20609;-42
2021/09/28 07:32:26;;;;;;;20.63;10.13;;;;;;;;;;4989375;28;20050;-46
2021/09/28 07:34:52;;;;;;;9.57;7.80;;;;;;;;;;4985406;28;20023;-41
2021/09/28 07:37:17;;;;;;;38.88;29.48;;;;;;;;;;4988004;28;20022;-41
2021/09/28 07:39:42;;;;;;;44.78;37.13;;;;;;;;;;4988879;28;20050;-41
2021/09/28 07:42:08;;;;;;;42.78;38.13;;;;;;;;;;4987503;28;20042;-40
2021/09/28 07:44:33;;;;;;;39.92;30.17;;;;;;;;;;4988124;28;20449;-42
2021/09/28 07:46:59;;;;;;;85.70;36.72;;;;;;;;;;4988838;28;20026;-40
2021/09/28 07:49:25;;;;;;;29.38;22.77;;;;;;;;;;4987612;28;20036;-40
2021/09/28 07:51:51;;;;;;;28.08;20.05;;;;;;;;;;4993651;28;20014;-39
2021/09/28 07:54:16;;;;;;;364.92;75.28;;;;;;;;;;4986973;28;20030;-43
2021/09/28 07:56:43;;;;;;;40.97;13.13;;;;;;;;;;4987408;28;20053;-42
2021/09/28 07:59:08;;;;;;;10.90;4.28;;;;;;;;;;4990134;28;20487;-39
2021/09/28 08:01:34;;;;;;;17.40;5.50;;;;;;;;;;4989034;28;20188;-40
2021/09/28 08:03:59;;;;;;;19.80;8.70;;;;;;;;;;4984433;28;20050;-41
2021/09/28 08:06:24;;;;;;;7.35;5.85;;;;;;;;;;4985558;28;20058;-39
2021/09/28 08:08:50;;;;;;;20.55;6.07;;;;;;;;;;4988180;28;20018;-39
2021/09/28 08:11:15;;;;;;;24.08;8.02;;;;;;;;;;4989529;28;20070;-40
2021/09/28 08:13:40;;;;;;;4.13;2.15;;;;;;;;;;4987390;28;20132;-43
2021/09/28 08:16:06;;;;;;;6.10;2.65;;;;;;;;;;4989302;28;20506;-40
2021/09/28 08:18:31;;;;;;;3.58;1.75;;;;;;;;;;4989483;28;20053;-39
2021/09/28 08:20:56;;;;;;;2.10;0.90;;;;;;;;;;4995443;28;20053;-41
2021/09/28 08:23:22;;;;;;;0.98;0.73;;;;;;;;;;4989774;28;20070;-40
2021/09/28 08:25:49;;;;;;;1.83;1.15;;;;;;;;;;4993561;28;20030;-40
2021/09/28 08:31:02;;;;;;;3.47;1.95;;;;;;;;;;4989216;28;20045;-40
2021/09/28 08:33:27;;;;;;;3.10;1.52;;;;;;;;;;4990470;28;20026;-41
2021/09/28 08:35:53;;;;;;;5.78;1.45;;;;;;;;;;4992932;28;20029;-44
2021/09/28 08:38:18;;;;;;;1.48;1.02;;;;;;;;;;4993176;28;20429;-45
2021/09/28 08:40:43;;;;;;;1.42;0.82;;;;;;;;;;4994302;28;20125;-39
2021/09/28 08:43:08;;;;;;;2.95;0.98;;;;;;;;;;4988517;28;20078;-40
2021/09/28 08:45:34;;;;;;;4.82;0.80;;;;;;;;;;4988327;28;20031;-41
2021/09/28 08:47:59;;;;;;;0.90;0.50;;;;;;;;;;4993076;28;20030;-42
2021/09/28 08:50:24;;;;;;;7.53;0.70;;;;;;;;;;4992453;28;20029;-41
2021/09/28 08:52:51;;;;;;;2.05;1.05;;;;;;;;;;4988484;28;20735;-43
2021/09/28 08:55:16;;;;;;;1.35;0.77;;;;;;;;;;4985133;28;20139;-43
2021/09/28 08:57:42;;;;;;;1.13;0.75;;;;;;;;;;4988246;28;20026;-47
2021/09/28 09:00:13;;;;;;;2.05;0.98;;;;;;;;;;4981331;28;20123;-47
2021/09/28 09:02:42;;;;;;;1.08;0.70;;;;;;;;;;4989594;28;20022;-47
2021/09/28 09:05:14;;;;;;;1.23;0.77;;;;;;;;;;4993975;28;20010;-43
2021/09/28 09:07:40;;;;;;;1.45;0.60;;;;;;;;;;4992189;28;20125;-43
2021/09/28 09:10:06;;;;;;;4.28;1.02;;;;;;;;;;4984415;28;20040;-42
2021/09/28 09:12:39;;;;;;;3.25;1.02;;;;;;;;;;4987940;28;20261;-42
2021/09/28 09:15:15;;;;;;;3.17;0.88;;;;;;;;;;4985758;28;20033;-42
2021/09/28 09:17:40;;;;;;;0.93;0.47;;;;;;;;;;4992003;28;20121;-42
2021/09/28 09:20:24;;;;;;;1.05;0.68;;;;;;;;;;4989287;28;20117;-41
2021/09/28 09:22:49;;;;;;;2.42;1.45;;;;;;;;;;4995382;28;20038;-40
2021/09/28 09:25:21;;;;;;;9.43;1.55;;;;;;;;;;4987706;28;20033;-40
2021/09/28 09:27:47;;;;;;;0.80;0.52;;;;;;;;;;4990399;28;20025;-40
2021/09/28 09:30:21;;;;;;;1.25;0.80;;;;;;;;;;4985457;28;20107;-41
2021/09/28 09:32:47;;;;;;;1.48;0.82;;;;;;;;;;4987922;28;20049;-41
2021/09/28 09:35:23;;;;;;;1.88;1.45;;;;;;;;;;4991661;28;20029;-42
2021/09/28 09:37:49;;;;;;;1.13;0.82;;;;;;;;;;4989156;28;20061;-42
2021/09/28 09:40:29;;;;;;;2.28;1.08;;;;;;;;;;4989249;28;20447;-41
2021/09/28 09:42:54;;;;;;;2.58;0.88;;;;;;;;;;4990724;28;20046;-40
2021/09/28 09:45:23;;;;;;;16.27;2.45;;;;;;;;;;4992412;28;20105;-40
2021/09/28 09:47:49;;;;;;;3.33;2.03;;;;;;;;;;4988212;28;20026;-42
2021/09/28 09:50:15;;;;;;;3.00;2.70;;;;;;;;;;4989296;28;20028;-41
2021/09/28 09:53:05;;;;;;;1.27;0.63;;;;;;;;;;4992491;28;20103;-40
2021/09/28 09:55:32;;;;;;;4.55;0.85;;;;;;;;;;4982671;28;20116;-46
2021/09/28 09:57:58;;;;;;;1.13;0.50;;;;;;;;;;4988398;28;20079;-43
2021/09/28 10:00:23;;;;;;;2.72;0.90;;;;;;;;;;4985084;28;20057;-42
2021/09/28 10:02:49;;;;;;;2.17;0.80;;;;;;;;;;4987532;28;20570;-43
2021/09/28 10:05:14;;;;;;;5.78;0.95;;;;;;;;;;4986378;28;20605;-44
2021/09/28 10:07:40;;;;;;;3.65;0.95;;;;;;;;;;4987971;28;20589;-44
2021/09/28 10:10:08;;;;;;;5.13;0.68;;;;;;;;;;4989513;28;20113;-43
2021/09/28 10:12:38;;;;;;;1.33;1.00;;;;;;;;;;4988394;28;20106;-41
2021/09/28 10:15:10;;;;;;;1.60;0.50;;;;;;;;;;4988448;28;20129;-44
2021/09/28 10:17:39;;;;;;;1.92;0.98;;;;;;;;;;4985769;28;20030;-47
2021/09/28 10:20:06;;;;;;;3.20;1.23;;;;;;;;;;4990336;28;20447;-42
2021/09/28 10:22:52;;;;;;;1.20;0.60;;;;;;;;;;4990643;28;20026;-41
2021/09/28 10:27:49;;;;;;;2.70;1.67;;;;;;;;;;4981345;28;20088;-43
2021/09/28 10:30:29;;;;;;;4.40;2.03;;;;;;;;;;4985382;28;20030;-40
2021/09/28 10:32:55;;;;;;;0.93;0.80;;;;;;;;;;4988036;28;20128;-42
2021/09/28 10:35:21;;;;;;;7.20;2.75;;;;;;;;;;4989994;28;20156;-43
2021/09/28 10:37:57;;;;;;;2.20;1.27;;;;;;;;;;4990357;28;20018;-41
2021/09/28 10:40:24;;;;;;;20.15;4.45;;;;;;;;;;4986034;28;20034;-45
2021/09/28 10:42:55;;;;;;;4.30;2.00;;;;;;;;;;4990844;28;20050;-45
2021/09/28 10:45:41;;;;;;;2.03;0.93;;;;;;;;;;4984176;28;20037;-42
2021/09/28 10:48:07;;;;;;;5.72;2.85;;;;;;;;;;4989243;28;20355;-39
2021/09/28 10:50:42;;;;;;;3.88;2.85;;;;;;;;;;4990484;28;20023;-42
2021/09/28 10:53:27;;;;;;;3.60;1.75;;;;;;;;;;4986801;28;20071;-41
2021/09/28 10:55:52;;;;;;;3.65;1.15;;;;;;;;;;4991844;28;20067;-45
2021/09/28 10:58:19;;;;;;;15.10;2.50;;;;;;;;;;4991005;28;20026;-39
2021/09/28 11:00:45;;;;;;;2.53;1.52;;;;;;;;;;4985572;28;20280;-42
2021/09/28 11:03:11;;;;;;;3.97;2.33;;;;;;;;;;4991273;28;20122;-40
2021/09/28 11:05:41;;;;;;;1.85;1.35;;;;;;;;;;4991500;28;20306;-43
2021/09/28 11:08:10;;;;;;;9.50;2.97;;;;;;;;;;4991365;28;20025;-43
2021/09/28 11:10:36;;;;;;;2.03;1.08;;;;;;;;;;4987983;28;20356;-44
2021/09/28 11:13:08;;;;;;;3.60;2.33;;;;;;;;;;4987469;28;20034;-44
2021/09/28 11:15:34;;;;;;;2.92;1.63;;;;;;;;;;4986498;28;20029;-46
2021/09/28 11:18:25;;;;;;;5.70;2.28;;;;;;;;;;4984439;28;20022;-44
2021/09/28 11:20:51;;;;;;;2.85;2.28;;;;;;;;;;4990700;28;20038;-44
2021/09/28 11:23:16;;;;;;;13.50;2.65;;;;;;;;;;4985184;28;20018;-46
2021/09/28 11:25:49;;;;;;;4.57;2.30;;;;;;;;;;4985270;28;20026;-41
2021/09/28 11:28:16;;;;;;;1.65;1.00;;;;;;;;;;4984322;28;20105;-41
2021/09/28 11:30:56;;;;;;;6.82;2.10;;;;;;;;;;4985443;28;20026;-45
2021/09/28 11:33:22;;;;;;;2.20;1.80;;;;;;;;;;4991889;28;20026;-44
2021/09/28 11:36:01;;;;;;;4.47;1.58;;;;;;;;;;4987700;28;20692;-43
2021/09/28 11:38:30;;;;;;;6.97;1.40;;;;;;;;;;4987439;28;20077;-45
2021/09/28 11:41:00;;;;;;;5.10;1.73;;;;;;;;;;4985110;28;20235;-43
2021/09/28 11:43:28;;;;;;;2.65;1.10;;;;;;;;;;4986368;28;20120;-41
2021/09/28 11:46:03;;;;;;;4.80;1.85;;;;;;;;;;4990691;28;20068;-46
2021/09/28 11:48:35;;;;;;;3.45;1.20;;;;;;;;;;4994645;28;20018;-44
2021/09/28 11:51:08;;;;;;;2.50;1.60;;;;;;;;;;4991934;28;20607;-45
2021/09/28 11:53:43;;;;;;;3.15;1.05;;;;;;;;;;4988789;28;20107;-42
2021/09/28 11:56:09;;;;;;;5.88;1.40;;;;;;;;;;4986994;28;20089;-42
2021/09/28 11:58:35;;;;;;;9.18;1.55;;;;;;;;;;4993092;28;20373;-41
2021/09/28 12:01:01;;;;;;;9.07;1.38;;;;;;;;;;4995434;28;20019;-42
2021/09/28 12:03:27;;;;;;;10.93;2.53;;;;;;;;;;4988035;28;20091;-42
2021/09/28 12:08:23;;;;;;;16.10;2.75;;;;;;;;;;4984184;28;20023;-41
2021/09/28 12:10:49;;;;;;;7.70;2.63;;;;;;;;;;4992676;28;20026;-44
2021/09/28 12:13:25;;;;;;;4.38;2.17;;;;;;;;;;4988325;28;20088;-45
2021/09/28 12:16:00;;;;;;;3.90;1.30;;;;;;;;;;4989843;28;20137;-41
2021/09/28 12:18:26;;;;;;;3.75;1.40;;;;;;;;;;4993453;28;20034;-43
2021/09/28 12:20:51;;;;;;;14.52;1.52;;;;;;;;;;4988375;28;20389;-43
2021/09/28 12:23:17;;;;;;;5.63;1.92;;;;;;;;;;4989160;28;20031;-39
2021/09/28 12:25:44;;;;;;;2.60;1.38;;;;;;;;;;4993168;28;20018;-39
2021/09/28 12:28:14;;;;;;;6.50;2.38;;;;;;;;;;4990811;28;20103;-40
2021/09/28 12:31:01;;;;;;;2.95;1.80;;;;;;;;;;4988960;28;20023;-43
2021/09/28 12:33:27;;;;;;;6.50;1.58;;;;;;;;;;4993818;28;20061;-41
2021/09/28 12:35:53;;;;;;;7.05;1.40;;;;;;;;;;4990974;28;20099;-41
2021/09/28 12:38:18;;;;;;;2.63;1.73;;;;;;;;;;4991170;28;20029;-41
2021/09/28 12:40:44;;;;;;;6.15;1.90;;;;;;;;;;4989451;28;20022;-40
2021/09/28 12:43:17;;;;;;;6.47;2.08;;;;;;;;;;4988962;28;20050;-40
2021/09/28 12:45:45;;;;;;;7.30;2.40;;;;;;;;;;4988162;28;20090;-41
2021/09/28 12:48:11;;;;;;;4.25;1.58;;;;;;;;;;4987820;28;20526;-43
2021/09/28 12:50:37;;;;;;;5.45;1.40;;;;;;;;;;4985905;28;20081;-43
2021/09/28 12:53:13;;;;;;;7.65;1.98;;;;;;;;;;4978683;28;20050;-42
2021/09/28 12:55:39;;;;;;;2.05;1.42;;;;;;;;;;4989169;28;20026;-41
2021/09/28 12:58:05;;;;;;;5.88;3.80;;;;;;;;;;4990604;28;20104;-40
2021/09/28 13:00:30;;;;;;;35.28;32.28;;;;;;;;;;4994741;28;20015;-42
2021/09/28 13:02:56;;;;;;;5.85;5.22;;;;;;;;;;4990072;28;20505;-45
2021/09/28 13:05:21;;;;;;;7.45;1.92;;;;;;;;;;4987236;28;20033;-42
2021/09/28 13:07:50;;;;;;;5.20;1.88;;;;;;;;;;4986460;28;20575;-41
2021/09/28 13:10:16;;;;;;;5.05;2.30;;;;;;;;;;4988659;28;20222;-42
2021/09/28 13:12:43;;;;;;;8.40;3.08;;;;;;;;;;4989155;28;20015;-45
2021/09/28 13:15:08;;;;;;;13.73;1.90;;;;;;;;;;4990031;28;20026;-44
2021/09/28 13:17:34;;;;;;;2.88;1.42;;;;;;;;;;4992775;28;20044;-43
2021/09/28 13:20:00;;;;;;;8.13;1.90;;;;;;;;;;4992821;28;20543;-48
2021/09/28 13:22:25;;;;;;;6.38;1.85;;;;;;;;;;4992555;28;20632;-46
2021/09/28 13:24:50;;;;;;;3.08;1.08;;;;;;;;;;4989636;28;20467;-47
2021/09/28 13:27:15;;;;;;;2.20;1.58;;;;;;;;;;4990835;28;20037;-46
2021/09/28 13:29:41;;;;;;;4.70;0.98;;;;;;;;;;4991116;28;20386;-45
2021/09/28 13:32:06;;;;;;;1.65;1.05;;;;;;;;;;4985867;28;20513;-44
2021/09/28 13:34:32;;;;;;;4.43;2.10;;;;;;;;;;4990326;28;20110;-42
2021/09/28 13:36:57;;;;;;;8.45;7.75;;;;;;;;;;4988367;28;20040;-46
2021/09/28 13:39:23;;;;;;;6.28;3.05;;;;;;;;;;4993950;28;20040;-43
2021/09/28 13:41:48;;;;;;;4.00;0.93;;;;;;;;;;4991543;28;20062;-45
2021/09/28 13:44:14;;;;;;;6.47;1.15;;;;;;;;;;4989448;28;20094;-42
2021/09/28 13:46:40;;;;;;;4.95;1.63;;;;;;;;;;4989119;28;20516;-44
2021/09/28 13:49:07;;;;;;;3.92;1.67;;;;;;;;;;4991721;28;20076;-43
2021/09/28 13:51:32;;;;;;;2.95;1.20;;;;;;;;;;4989724;28;20064;-47
2021/09/28 13:53:58;;;;;;;8.88;1.33;;;;;;;;;;4992379;28;20514;-48
2021/09/28 13:56:23;;;;;;;4.20;1.35;;;;;;;;;;4991757;28;20026;-46
2021/09/28 13:58:48;;;;;;;10.50;4.10;;;;;;;;;;4992046;28;20029;-43
2021/09/28 14:01:14;;;;;;;6.38;3.03;;;;;;;;;;4997013;28;20026;-45
2021/09/28 14:03:39;;;;;;;7.13;1.98;;;;;;;;;;4991169;28;20045;-48
2021/09/28 14:06:04;;;;;;;11.20;2.15;;;;;;;;;;4989377;28;20030;-50
2021/09/28 14:08:30;;;;;;;5.68;1.48;;;;;;;;;;4993302;28;20042;-47
2021/09/28 14:10:55;;;;;;;2.92;0.80;;;;;;;;;;4989251;28;20113;-45
2021/09/28 14:13:20;;;;;;;2.42;1.00;;;;;;;;;;4990292;28;20535;-49
2021/09/28 14:15:45;;;;;;;3.10;1.58;;;;;;;;;;4992704;28;20030;-45
2021/09/28 14:18:11;;;;;;;6.82;1.67;;;;;;;;;;4994098;28;20087;-43
2021/09/28 14:20:36;;;;;;;7.85;3.55;;;;;;;;;;4990816;28;20030;-40
2021/09/28 14:23:01;;;;;;;4.07;1.73;;;;;;;;;;4986488;28;20061;-43
2021/09/28 14:25:27;;;;;;;1.65;1.10;;;;;;;;;;4994499;28;20074;-44
2021/09/28 14:27:52;;;;;;;2.55;1.30;;;;;;;;;;4988814;28;20026;-44
2021/09/28 14:30:17;;;;;;;3.42;1.70;;;;;;;;;;4989504;28;20703;-39
2021/09/28 14:32:43;;;;;;;4.43;1.88;;;;;;;;;;4988307;28;20527;-41
2021/09/28 14:35:08;;;;;;;4.00;1.50;;;;;;;;;;4990311;28;20049;-41
2021/09/28 14:37:34;;;;;;;3.60;1.88;;;;;;;;;;4994158;28;20018;-40
2021/09/28 14:39:59;;;;;;;7.00;1.92;;;;;;;;;;4989898;28;20022;-47
2021/09/28 14:42:25;;;;;;;4.25;1.85;;;;;;;;;;4992612;28;20037;-43
2021/09/28 14:44:52;;;;;;;6.60;2.22;;;;;;;;;;4990518;28;20030;-40
2021/09/28 14:47:17;;;;;;;1.55;0.95;;;;;;;;;;4990174;28;20104;-41
2021/09/28 14:49:43;;;;;;;0.93;0.63;;;;;;;;;;4990125;28;20061;-46